Terminal Aerodrome Forecast
Issued by NWS Twin Cities, MN

Home | Current Version | Previous Version | Graphics & Text | Print | Product List | Glossary On
Versions: 1 2 3 4 5 6 7 8 9 10 11 12 13 14 15 16 17 18 19 20
000
FTUS43 KMPX 171700
TAFSTC
TAF
KSTC 171724Z 1718/1818 34005KT P6SM SCT020 BKN100
      TEMPO 1718/1720 4SM -SN BKN015
     FM172200 VRB03KT P6SM SCT250=

USA.gov is the U.S. government's official web portal to all federal, state and local government web resources and services.